createdAt,value
2019-01-20T00:00:57.169Z,99.36
2019-01-20T00:03:30.243Z,99.51
2019-01-20T00:06:03.291Z,99.90
2019-01-20T00:08:39.706Z,99.59
2019-01-20T00:11:16.793Z,99.15
2019-01-20T00:13:48.849Z,99.39
2019-01-20T00:16:40.633Z,99.22
2019-01-20T00:19:17.043Z,98.68
2019-01-20T00:21:51.815Z,98.52
2019-01-20T00:24:26.097Z,98.32
2019-01-20T00:27:05.263Z,98.06
2019-01-20T00:29:39.687Z,97.65
2019-01-20T00:32:14.407Z,98.17
2019-01-20T00:34:48.363Z,98.56
2019-01-20T00:37:22.094Z,99.60
2019-01-20T00:39:56.009Z,99.84
2019-01-20T00:42:29.017Z,100.00
2019-01-20T00:45:03.209Z,100.00
2019-01-20T00:47:37.165Z,100.00
2019-01-20T00:50:10.649Z,100.00
2019-01-20T00:52:44.530Z,100.00
2019-01-20T00:55:17.620Z,100.00
2019-01-20T00:57:51.551Z,100.00
2019-01-20T01:00:27.605Z,99.98
2019-01-20T01:03:01.175Z,99.85
2019-01-20T01:05:37.028Z,99.76
2019-01-20T01:08:10.228Z,99.80
2019-01-20T01:10:43.203Z,100.00
2019-01-20T01:13:15.909Z,100.00
2019-01-20T01:15:48.971Z,100.00
2019-01-20T01:18:22.290Z,99.93
2019-01-20T01:20:55.666Z,99.84
2019-01-20T01:23:29.185Z,99.73
2019-01-20T01:26:01.667Z,99.63
2019-01-20T01:28:35.373Z,99.99
2019-01-20T01:31:09.195Z,99.73
2019-01-20T01:33:42.780Z,99.41
2019-01-20T01:36:16.180Z,99.40
2019-01-20T01:38:49.551Z,99.21
2019-01-20T01:41:22.655Z,98.86
2019-01-20T01:43:56.044Z,98.64
2019-01-20T01:46:29.431Z,98.38
2019-01-20T01:49:03.571Z,98.16
2019-01-20T01:51:38.620Z,97.83
2019-01-20T01:54:12.499Z,97.73
2019-01-20T01:56:46.217Z,97.42
2019-01-20T01:59:19.229Z,97.51
2019-01-20T02:01:51.950Z,97.63
2019-01-20T02:04:25.050Z,98.09
2019-01-20T02:06:58.370Z,98.73
2019-01-20T02:09:32.478Z,99.01
2019-01-20T02:12:05.559Z,99.15
2019-01-20T02:14:38.239Z,99.68
2019-01-20T02:17:11.333Z,100.00
2019-01-20T02:19:44.340Z,100.00
2019-01-20T02:22:16.655Z,100.00
2019-01-20T02:24:49.783Z,100.00
2019-01-20T02:27:22.783Z,100.00
2019-01-20T02:29:56.279Z,100.00
2019-01-20T02:32:28.959Z,100.00
2019-01-20T02:35:02.353Z,100.00
2019-01-20T02:37:35.130Z,100.00
2019-01-20T02:40:08.750Z,100.00
2019-01-20T02:42:42.549Z,100.00
2019-01-20T02:45:16.713Z,100.00
2019-01-20T02:47:50.680Z,100.00
2019-01-20T02:50:23.031Z,100.00
2019-01-20T02:52:58.793Z,100.00
2019-01-20T02:55:32.117Z,100.00
2019-01-20T02:58:05.105Z,100.00
2019-01-20T03:00:38.209Z,100.00
2019-01-20T03:03:13.185Z,100.00
2019-01-20T03:05:57.138Z,100.00
2019-01-20T03:08:38.170Z,100.00
2019-01-20T03:11:33.024Z,100.00
2019-01-20T03:14:11.677Z,100.00
2019-01-20T03:16:53.246Z,100.00
2019-01-20T03:19:33.676Z,100.00
2019-01-20T03:22:15.991Z,100.00
2019-01-20T03:24:55.717Z,100.00
2019-01-20T03:27:28.750Z,100.00
2019-01-20T03:30:01.322Z,100.00
2019-01-20T03:32:34.038Z,100.00
2019-01-20T03:35:08.227Z,100.00
2019-01-20T03:37:40.827Z,100.00
2019-01-20T03:40:15.792Z,100.00
2019-01-20T03:42:50.273Z,100.00
2019-01-20T03:45:23.228Z,100.00
2019-01-20T03:47:56.320Z,100.00
2019-01-20T03:50:29.817Z,100.00
2019-01-20T03:53:02.487Z,100.00
2019-01-20T03:55:34.737Z,100.00
2019-01-20T03:58:08.042Z,100.00
2019-01-20T04:00:40.954Z,100.00
2019-01-20T04:03:14.348Z,100.00
2019-01-20T04:05:47.953Z,100.00
2019-01-20T04:08:21.293Z,100.00
2019-01-20T04:10:54.601Z,100.00
2019-01-20T04:13:28.043Z,100.00
2019-01-20T04:16:01.434Z,100.00
2019-01-20T04:18:34.397Z,100.00
2019-01-20T04:21:09.006Z,100.00
2019-01-20T04:23:42.040Z,100.00
2019-01-20T04:26:15.351Z,100.00
2019-01-20T04:28:48.004Z,100.00
2019-01-20T04:31:20.981Z,100.00
2019-01-20T04:33:55.721Z,100.00
2019-01-20T04:36:29.268Z,100.00
2019-01-20T04:39:02.240Z,100.00
2019-01-20T04:41:37.106Z,100.00
2019-01-20T04:44:10.554Z,100.00
2019-01-20T04:46:43.995Z,100.00
2019-01-20T04:49:17.331Z,100.00
2019-01-20T04:51:51.259Z,100.00
2019-01-20T04:54:24.654Z,100.00
2019-01-20T04:56:57.265Z,100.00
2019-01-20T04:59:31.035Z,100.00
2019-01-20T05:02:05.051Z,100.00
2019-01-20T05:04:38.515Z,100.00
2019-01-20T05:07:11.932Z,100.00
2019-01-20T05:09:45.333Z,100.00
2019-01-20T05:12:18.447Z,100.00
2019-01-20T05:14:51.766Z,100.00
2019-01-20T05:17:24.358Z,100.00
2019-01-20T05:19:57.819Z,100.00
2019-01-20T05:22:30.917Z,100.00
2019-01-20T05:25:04.625Z,100.00
2019-01-20T05:27:37.675Z,100.00
2019-01-20T05:30:15.604Z,100.00
2019-01-20T05:32:49.186Z,100.00
2019-01-20T05:35:22.307Z,100.00
2019-01-20T05:37:55.606Z,100.00
2019-01-20T05:40:31.314Z,100.00
2019-01-20T05:43:03.912Z,100.00
2019-01-20T05:45:36.985Z,100.00
2019-01-20T05:48:10.423Z,100.00
2019-01-20T05:50:42.949Z,100.00
2019-01-20T05:53:16.434Z,100.00
2019-01-20T05:55:49.703Z,100.00
2019-01-20T05:58:22.779Z,100.00
2019-01-20T06:00:55.714Z,100.00
2019-01-20T06:03:28.722Z,100.00
2019-01-20T06:06:02.626Z,100.00
2019-01-20T06:08:35.935Z,100.00
2019-01-20T06:11:09.443Z,100.00
2019-01-20T06:13:42.812Z,100.00
2019-01-20T06:16:16.261Z,100.00
2019-01-20T06:18:51.345Z,100.00
2019-01-20T06:21:30.251Z,100.00
2019-01-20T06:24:03.951Z,100.00
2019-01-20T06:26:37.652Z,100.00
2019-01-20T06:29:11.105Z,100.00
2019-01-20T06:31:44.901Z,100.00
2019-01-20T06:34:18.104Z,100.00
2019-01-20T06:36:51.161Z,100.00
2019-01-20T06:39:24.453Z,100.00
2019-01-20T06:41:57.522Z,100.00
2019-01-20T06:44:30.960Z,100.00
2019-01-20T06:47:03.941Z,100.00
2019-01-20T06:49:37.294Z,100.00
2019-01-20T06:52:10.350Z,100.00
2019-01-20T06:54:44.035Z,100.00
2019-01-20T06:57:17.152Z,100.00
2019-01-20T06:59:50.237Z,100.00
2019-01-20T07:02:23.587Z,100.00
2019-01-20T07:04:56.654Z,100.00
2019-01-20T07:07:30.412Z,100.00
2019-01-20T07:10:04.229Z,100.00
2019-01-20T07:12:37.555Z,100.00
2019-01-20T07:15:15.808Z,100.00
2019-01-20T07:17:49.460Z,100.00
2019-01-20T07:20:22.661Z,100.00
2019-01-20T07:22:56.128Z,100.00
2019-01-20T07:25:29.498Z,100.00
2019-01-20T07:28:05.221Z,100.00
2019-01-20T07:30:38.941Z,100.00
2019-01-20T07:33:12.681Z,100.00
2019-01-20T07:35:45.759Z,100.00
2019-01-20T07:38:18.757Z,100.00
2019-01-20T07:40:52.050Z,100.00
2019-01-20T07:43:25.858Z,100.00
2019-01-20T07:45:59.363Z,100.00
2019-01-20T07:48:32.339Z,100.00
2019-01-20T07:51:05.800Z,100.00
2019-01-20T07:53:40.313Z,100.00
2019-01-20T07:56:16.519Z,100.00
2019-01-20T07:58:57.504Z,100.00
2019-01-20T08:01:30.964Z,100.00
2019-01-20T08:04:06.039Z,100.00
2019-01-20T08:06:39.537Z,100.00
2019-01-20T08:09:12.856Z,100.00
2019-01-20T08:11:47.178Z,100.00
2019-01-20T08:14:20.581Z,100.00
2019-01-20T08:16:57.422Z,100.00
2019-01-20T08:19:30.014Z,100.00
2019-01-20T08:22:03.448Z,100.00
2019-01-20T08:24:37.245Z,100.00
2019-01-20T08:27:10.206Z,100.00
2019-01-20T08:29:42.787Z,100.00
2019-01-20T08:32:15.886Z,99.61
2019-01-20T08:34:48.929Z,100.00
2019-01-20T08:37:28.635Z,99.19
2019-01-20T08:39:57.276Z,99.27
2019-01-20T08:42:30.067Z,97.80
2019-01-20T08:45:03.431Z,93.67
2019-01-20T08:47:44.038Z,91.51
2019-01-20T08:50:16.988Z,92.02
2019-01-20T08:52:50.975Z,93.83
2019-01-20T08:55:24.719Z,95.05
2019-01-20T08:57:58.253Z,93.16
2019-01-20T09:00:31.678Z,93.73
2019-01-20T09:03:05.026Z,92.34
2019-01-20T09:05:37.992Z,89.97
2019-01-20T09:08:12.498Z,92.09
2019-01-20T09:10:45.279Z,91.07
2019-01-20T09:13:18.316Z,91.58
2019-01-20T09:15:52.055Z,89.59
2019-01-20T09:18:25.083Z,88.54
2019-01-20T09:20:59.619Z,87.40
2019-01-20T09:23:34.752Z,84.83
2019-01-20T09:26:08.179Z,79.02
2019-01-20T09:28:41.336Z,71.88
2019-01-20T09:31:14.476Z,70.21
2019-01-20T09:33:48.302Z,69.58
2019-01-20T09:36:21.718Z,68.37
2019-01-20T09:38:55.058Z,66.67
2019-01-20T09:41:27.720Z,65.79
2019-01-20T09:44:01.241Z,64.78
2019-01-20T09:46:34.337Z,66.72
2019-01-20T09:49:07.714Z,65.72
2019-01-20T09:51:42.924Z,66.36
2019-01-20T09:54:15.955Z,65.58
2019-01-20T09:56:48.764Z,60.16
2019-01-20T09:59:22.141Z,59.69
2019-01-20T10:01:56.154Z,58.81
2019-01-20T10:04:28.827Z,60.09
2019-01-20T10:07:02.245Z,59.80
2019-01-20T10:09:35.814Z,58.52
2019-01-20T10:12:09.019Z,57.86
2019-01-20T10:14:42.737Z,57.07
2019-01-20T10:17:18.287Z,55.94
2019-01-20T10:19:51.929Z,57.88
2019-01-20T10:22:25.397Z,57.75
2019-01-20T10:24:58.807Z,56.54
2019-01-20T10:27:32.549Z,53.99
2019-01-20T10:30:09.568Z,52.21
2019-01-20T10:32:42.748Z,51.43
2019-01-20T10:35:16.886Z,44.86
2019-01-20T10:37:50.713Z,45.41
2019-01-20T10:40:23.751Z,46.34
2019-01-20T10:42:57.055Z,46.50
2019-01-20T10:45:30.994Z,47.97
2019-01-20T10:48:05.291Z,48.77
2019-01-20T10:50:38.674Z,43.78
2019-01-20T10:53:12.179Z,44.78
2019-01-20T10:55:45.690Z,46.55
2019-01-20T10:58:18.851Z,44.18
2019-01-20T11:00:52.065Z,46.07
2019-01-20T11:03:41.918Z,46.69
2019-01-20T11:06:43.971Z,45.93
2019-01-20T11:09:19.775Z,46.93
2019-01-20T11:11:56.362Z,49.22
2019-01-20T11:14:32.447Z,47.03
2019-01-20T11:17:06.112Z,47.87
2019-01-20T11:19:39.304Z,45.89
2019-01-20T11:22:13.098Z,46.52
2019-01-20T11:24:46.333Z,47.54
2019-01-20T11:27:20.008Z,41.81
2019-01-20T11:29:54.696Z,40.54
2019-01-20T11:32:28.263Z,41.27
2019-01-20T11:35:02.180Z,42.63
2019-01-20T11:37:35.560Z,41.90
2019-01-20T11:40:10.857Z,39.56
2019-01-20T11:42:44.774Z,39.04
2019-01-20T11:45:21.473Z,38.99
2019-01-20T11:47:54.625Z,36.91
2019-01-20T11:50:28.420Z,36.18
2019-01-20T11:53:04.179Z,37.57
2019-01-20T11:55:37.746Z,40.11
2019-01-20T11:58:11.612Z,40.76
2019-01-20T12:00:44.613Z,41.88
2019-01-20T12:03:21.496Z,43.13
2019-01-20T12:05:54.175Z,43.73
2019-01-20T12:08:30.542Z,43.80
2019-01-20T12:11:03.817Z,44.51
2019-01-20T12:13:43.155Z,41.58
2019-01-20T12:16:16.752Z,42.01
2019-01-20T12:18:50.529Z,43.53
2019-01-20T12:21:23.945Z,39.88
2019-01-20T12:23:57.073Z,40.38
2019-01-20T12:26:30.670Z,37.04
2019-01-20T12:29:19.620Z,37.31
2019-01-20T12:31:57.471Z,40.11
2019-01-20T12:34:39.006Z,42.97
2019-01-20T12:37:17.036Z,41.89
2019-01-20T12:39:57.680Z,39.25
2019-01-20T12:42:39.481Z,37.56
2019-01-20T12:45:22.670Z,35.80
2019-01-20T12:48:03.391Z,36.70
2019-01-20T12:50:40.002Z,38.22
2019-01-20T12:53:14.872Z,40.04
2019-01-20T12:55:49.846Z,42.48
2019-01-20T12:58:30.686Z,41.48
2019-01-20T13:01:10.194Z,37.98
2019-01-20T13:03:50.336Z,36.41
2019-01-20T13:06:29.500Z,38.98
2019-01-20T13:09:11.200Z,39.36
2019-01-20T13:11:45.897Z,41.43
2019-01-20T13:14:23.076Z,44.49
2019-01-20T13:16:56.337Z,45.05
2019-01-20T13:19:29.205Z,43.60
2019-01-20T13:22:02.302Z,45.11
2019-01-20T13:24:36.318Z,47.61
2019-01-20T13:27:10.194Z,46.86
2019-01-20T13:29:43.808Z,46.15
2019-01-20T13:32:17.279Z,46.69
2019-01-20T13:34:50.737Z,48.29
2019-01-20T13:37:23.886Z,46.30
2019-01-20T13:39:56.590Z,45.90
2019-01-20T13:42:30.104Z,47.71
2019-01-20T13:45:03.726Z,46.99
2019-01-20T13:47:36.453Z,47.09
2019-01-20T13:50:12.132Z,44.91
2019-01-20T13:52:44.706Z,49.94
2019-01-20T13:55:17.661Z,47.54
2019-01-20T13:57:50.663Z,48.97
2019-01-20T14:00:23.769Z,49.50
2019-01-20T14:02:57.692Z,52.67
2019-01-20T14:05:30.848Z,49.87
2019-01-20T14:08:03.542Z,50.87
2019-01-20T14:10:36.703Z,52.36
2019-01-20T14:13:10.533Z,50.47
2019-01-20T14:15:43.952Z,47.21
2019-01-20T14:18:16.640Z,49.25
2019-01-20T14:20:50.102Z,49.68
2019-01-20T14:23:23.836Z,49.14
2019-01-20T14:25:57.854Z,47.90
2019-01-20T14:28:31.426Z,50.16
2019-01-20T14:31:04.936Z,53.32
2019-01-20T14:33:38.357Z,55.38
2019-01-20T14:36:12.355Z,56.19
2019-01-20T14:38:45.838Z,53.85
2019-01-20T14:41:18.820Z,51.94
2019-01-20T14:43:56.118Z,50.62
2019-01-20T14:46:30.667Z,49.70
2019-01-20T14:49:03.544Z,49.17
2019-01-20T14:51:41.494Z,48.51
2019-01-20T14:54:14.827Z,49.97
2019-01-20T14:56:50.497Z,51.26
2019-01-20T14:59:27.226Z,52.03
2019-01-20T15:02:06.873Z,52.48
2019-01-20T15:04:42.265Z,52.12
2019-01-20T15:07:18.028Z,51.18
2019-01-20T15:09:51.578Z,51.13
2019-01-20T15:12:24.995Z,51.70
2019-01-20T15:14:58.421Z,51.59
2019-01-20T15:17:31.925Z,53.38
2019-01-20T15:20:06.514Z,54.80
2019-01-20T15:22:40.531Z,56.77
2019-01-20T15:25:14.457Z,59.29
2019-01-20T15:27:48.419Z,60.58
2019-01-20T15:30:23.836Z,62.21
2019-01-20T15:32:57.989Z,63.03
2019-01-20T15:35:30.984Z,63.21
2019-01-20T15:38:04.424Z,64.35
2019-01-20T15:40:37.634Z,65.78
2019-01-20T15:43:12.423Z,67.00
2019-01-20T15:45:48.357Z,68.86
2019-01-20T15:48:28.207Z,70.45
2019-01-20T15:51:02.158Z,72.01
2019-01-20T15:53:42.782Z,73.79
2019-01-20T15:56:42.211Z,75.35
2019-01-20T15:59:42.310Z,77.56
2019-01-20T16:02:18.381Z,78.91
2019-01-20T16:05:03.075Z,80.95
2019-01-20T16:07:55.721Z,82.65
2019-01-20T16:10:38.094Z,84.66
2019-01-20T16:13:24.200Z,86.17
2019-01-20T16:16:24.724Z,87.40
2019-01-20T16:19:07.120Z,88.26
2019-01-20T16:21:44.560Z,89.77
2019-01-20T16:24:26.228Z,90.42
2019-01-20T16:27:09.229Z,91.27
2019-01-20T16:29:43.669Z,92.28
2019-01-20T16:32:36.830Z,92.76
2019-01-20T16:35:11.069Z,93.49
2019-01-20T16:37:44.591Z,94.20
2019-01-20T16:40:19.497Z,95.23
2019-01-20T16:42:52.854Z,95.92
2019-01-20T16:45:33.019Z,96.38
2019-01-20T16:48:08.005Z,96.34
2019-01-20T16:53:41.992Z,97.58
2019-01-20T16:56:30.438Z,98.01
2019-01-20T16:59:21.687Z,99.00
2019-01-20T17:01:57.834Z,99.50
2019-01-20T17:04:37.966Z,100.00
2019-01-20T17:07:15.881Z,100.00
2019-01-20T17:10:08.078Z,100.00
2019-01-20T17:12:47.460Z,100.00
2019-01-20T17:15:27.387Z,100.00
2019-01-20T17:18:02.015Z,100.00
2019-01-20T17:20:35.323Z,100.00
2019-01-20T17:23:11.272Z,100.00
2019-01-20T17:25:49.980Z,100.00
2019-01-20T17:28:25.866Z,100.00
2019-01-20T17:31:02.871Z,100.00
2019-01-20T17:33:42.082Z,100.00
2019-01-20T17:36:17.293Z,100.00
2019-01-20T17:38:52.574Z,100.00
2019-01-20T17:41:25.924Z,100.00
2019-01-20T17:44:00.358Z,100.00
2019-01-20T17:46:33.508Z,100.00
2019-01-20T17:49:07.669Z,100.00
2019-01-20T17:51:49.643Z,100.00
2019-01-20T17:54:32.091Z,100.00
2019-01-20T17:57:16.047Z,100.00
2019-01-20T17:59:50.041Z,100.00
2019-01-20T18:02:27.613Z,100.00
2019-01-20T18:05:08.135Z,100.00
2019-01-20T18:07:41.206Z,100.00
2019-01-20T18:10:14.918Z,100.00
2019-01-20T18:12:48.611Z,100.00
2019-01-20T18:15:22.095Z,100.00
2019-01-20T18:17:55.429Z,100.00
2019-01-20T18:20:29.052Z,100.00
2019-01-20T18:23:02.437Z,100.00
2019-01-20T18:25:36.003Z,100.00
2019-01-20T18:28:16.468Z,100.00
2019-01-20T18:30:57.105Z,100.00
2019-01-20T18:33:56.882Z,100.00
2019-01-20T19:01:50.900Z,100.00
2019-01-20T19:04:43.480Z,100.00
2019-01-20T19:07:20.030Z,100.00
2019-01-20T19:10:20.448Z,100.00
2019-01-20T19:13:11.044Z,100.00
2019-01-20T19:15:54.336Z,100.00
2019-01-20T19:18:31.530Z,100.00
2019-01-20T19:21:12.440Z,100.00
2019-01-20T19:23:46.655Z,100.00
2019-01-20T19:26:24.243Z,100.00
2019-01-20T19:29:02.946Z,100.00
2019-01-20T19:31:35.167Z,100.00
2019-01-20T19:34:12.712Z,100.00
2019-01-20T19:36:53.826Z,100.00
2019-01-20T19:39:41.630Z,100.00
2019-01-20T19:42:19.113Z,100.00
2019-01-20T19:44:56.965Z,100.00
2019-01-20T19:47:33.291Z,100.00
2019-01-20T19:50:15.084Z,100.00
2019-01-20T19:52:50.986Z,100.00
2019-01-20T19:55:29.531Z,100.00
2019-01-20T19:58:03.431Z,100.00
2019-01-20T20:00:38.543Z,100.00
2019-01-20T20:03:14.291Z,100.00
2019-01-20T20:05:47.770Z,100.00
2019-01-20T20:08:20.760Z,100.00
2019-01-20T20:10:55.828Z,100.00
2019-01-20T20:13:30.603Z,100.00
2019-01-20T20:16:03.493Z,100.00
2019-01-20T20:18:37.027Z,100.00
2019-01-20T20:21:11.473Z,100.00
2019-01-20T20:23:47.428Z,100.00
2019-01-20T20:26:23.436Z,100.00
2019-01-20T20:28:57.343Z,100.00
2019-01-20T20:31:30.460Z,100.00
2019-01-20T20:34:04.358Z,100.00
2019-01-20T20:36:37.277Z,100.00
2019-01-20T20:39:12.664Z,100.00
2019-01-20T20:41:47.242Z,100.00
2019-01-20T20:44:20.318Z,100.00
2019-01-20T20:46:53.006Z,100.00
2019-01-20T20:49:28.525Z,100.00
2019-01-20T20:52:01.337Z,100.00
2019-01-20T20:54:35.869Z,100.00
2019-01-20T20:57:10.356Z,100.00
2019-01-20T20:59:43.557Z,100.00
2019-01-20T21:02:16.714Z,100.00
2019-01-20T21:04:50.357Z,100.00
2019-01-20T21:07:23.498Z,100.00
2019-01-20T21:09:57.582Z,100.00
2019-01-20T21:12:30.639Z,100.00
2019-01-20T21:15:04.037Z,100.00
2019-01-20T21:17:37.147Z,100.00
2019-01-20T21:20:20.555Z,100.00
2019-01-20T21:22:54.227Z,100.00
2019-01-20T21:25:28.982Z,100.00
2019-01-20T21:28:02.254Z,100.00
2019-01-20T21:30:35.399Z,100.00
2019-01-20T21:33:09.064Z,100.00
2019-01-20T21:35:42.614Z,100.00
2019-01-20T21:38:16.726Z,100.00
2019-01-20T21:40:54.129Z,100.00
2019-01-20T21:43:31.224Z,100.00
2019-01-20T21:46:05.683Z,100.00
2019-01-20T21:48:48.095Z,100.00
2019-01-20T21:51:27.930Z,100.00
2019-01-20T21:54:03.972Z,100.00
2019-01-20T21:56:42.922Z,100.00
2019-01-20T21:59:19.887Z,100.00
2019-01-20T22:01:54.741Z,100.00
2019-01-20T22:04:36.633Z,100.00
2019-01-20T22:07:17.302Z,100.00
2019-01-20T22:09:57.463Z,100.00
2019-01-20T22:12:31.425Z,100.00
2019-01-20T22:15:17.475Z,100.00
2019-01-20T22:17:54.460Z,100.00
2019-01-20T22:20:30.167Z,100.00
2019-01-20T22:26:16.132Z,100.00
2019-01-20T22:29:01.854Z,100.00
2019-01-20T22:31:39.090Z,100.00
2019-01-20T22:34:19.535Z,100.00
2019-01-20T22:36:59.563Z,100.00
2019-01-20T22:39:37.873Z,100.00
2019-01-20T22:42:18.435Z,100.00
2019-01-20T22:44:58.696Z,100.00
2019-01-20T22:47:40.928Z,100.00
2019-01-20T22:50:16.589Z,100.00
2019-01-20T22:53:02.911Z,100.00
2019-01-20T22:55:37.411Z,100.00
2019-01-20T22:58:10.577Z,100.00
2019-01-20T23:00:54.680Z,100.00
2019-01-20T23:03:30.484Z,100.00
2019-01-20T23:06:09.087Z,100.00
2019-01-20T23:08:48.278Z,100.00
2019-01-20T23:11:28.165Z,100.00
2019-01-20T23:14:02.355Z,100.00
2019-01-20T23:16:35.402Z,100.00
2019-01-20T23:19:08.041Z,100.00
2019-01-20T23:21:41.482Z,100.00
2019-01-20T23:24:29.993Z,100.00
2019-01-20T23:27:11.440Z,100.00
2019-01-20T23:29:51.828Z,100.00
2019-01-20T23:32:34.196Z,100.00
2019-01-20T23:35:22.624Z,100.00
2019-01-20T23:38:13.729Z,100.00
2019-01-20T23:40:54.307Z,100.00
2019-01-20T23:43:35.781Z,100.00
2019-01-20T23:46:32.914Z,100.00
2019-01-20T23:49:06.559Z,100.00
2019-01-20T23:51:57.078Z,100.00
2019-01-20T23:54:32.704Z,100.00
2019-01-20T23:57:08.810Z,100.00
2019-01-20T23:59:59.975Z,100.00
